sensor_id;sensor_type;location;lat;lon;timestamp;P1;durP1;ratioP1;P2;durP2;ratioP2
58091;SDS011;43896;48.178;11.578;2022-12-01T00:01:04;31.90;;;15.55;;
58091;SDS011;43896;48.178;11.578;2022-12-01T00:03:41;31.67;;;15.35;;
58091;SDS011;43896;48.178;11.578;2022-12-01T00:06:26;32.15;;;16.67;;
58091;SDS011;43896;48.178;11.578;2022-12-01T00:09:00;32.67;;;15.52;;
58091;SDS011;43896;48.178;11.578;2022-12-01T00:11:54;32.92;;;16.52;;
58091;SDS011;43896;48.178;11.578;2022-12-01T00:14:28;34.03;;;16.15;;
58091;SDS011;43896;48.178;11.578;2022-12-01T00:17:07;34.97;;;17.38;;
58091;SDS011;43896;48.178;11.578;2022-12-01T00:19:38;32.08;;;15.57;;
58091;SDS011;43896;48.178;11.578;2022-12-01T00:22:23;32.38;;;15.45;;
58091;SDS011;43896;48.178;11.578;2022-12-01T00:24:58;32.72;;;16.63;;
58091;SDS011;43896;48.178;11.578;2022-12-01T00:27:26;31.48;;;15.43;;
58091;SDS011;43896;48.178;11.578;2022-12-01T00:29:56;32.78;;;15.52;;
58091;SDS011;43896;48.178;11.578;2022-12-01T00:32:34;29.55;;;14.65;;
58091;SDS011;43896;48.178;11.578;2022-12-01T00:35:34;33.17;;;15.50;;
58091;SDS011;43896;48.178;11.578;2022-12-01T00:38:01;27.83;;;14.40;;
58091;SDS011;43896;48.178;11.578;2022-12-01T00:40:39;29.17;;;14.55;;
58091;SDS011;43896;48.178;11.578;2022-12-01T00:43:04;30.63;;;14.30;;
58091;SDS011;43896;48.178;11.578;2022-12-01T00:45:51;27.83;;;14.15;;
58091;SDS011;43896;48.178;11.578;2022-12-01T00:48:23;28.67;;;14.50;;
58091;SDS011;43896;48.178;11.578;2022-12-01T00:50:59;27.50;;;14.05;;
58091;SDS011;43896;48.178;11.578;2022-12-01T00:53:33;27.50;;;13.90;;
58091;SDS011;43896;48.178;11.578;2022-12-01T00:56:00;29.50;;;13.98;;
58091;SDS011;43896;48.178;11.578;2022-12-01T00:58:39;30.48;;;14.52;;
58091;SDS011;43896;48.178;11.578;2022-12-01T01:01:14;28.05;;;13.93;;
58091;SDS011;43896;48.178;11.578;2022-12-01T01:03:42;28.10;;;14.15;;
58091;SDS011;43896;48.178;11.578;2022-12-01T01:06:35;25.33;;;12.82;;
58091;SDS011;43896;48.178;11.578;2022-12-01T01:09:07;27.55;;;13.68;;
58091;SDS011;43896;48.178;11.578;2022-12-01T01:11:51;29.58;;;14.25;;
58091;SDS011;43896;48.178;11.578;2022-12-01T01:14:20;28.88;;;13.77;;
58091;SDS011;43896;48.178;11.578;2022-12-01T01:16:57;29.83;;;14.50;;
58091;SDS011;43896;48.178;11.578;2022-12-01T01:19:25;29.40;;;14.05;;
58091;SDS011;43896;48.178;11.578;2022-12-01T01:21:53;32.05;;;14.63;;
58091;SDS011;43896;48.178;11.578;2022-12-01T01:24:21;29.75;;;14.43;;
58091;SDS011;43896;48.178;11.578;2022-12-01T01:26:46;30.85;;;14.20;;
58091;SDS011;43896;48.178;11.578;2022-12-01T01:29:14;29.92;;;14.25;;
58091;SDS011;43896;48.178;11.578;2022-12-01T01:31:52;30.30;;;14.57;;
58091;SDS011;43896;48.178;11.578;2022-12-01T01:34:30;31.80;;;14.32;;
58091;SDS011;43896;48.178;11.578;2022-12-01T01:37:01;32.70;;;14.95;;
58091;SDS011;43896;48.178;11.578;2022-12-01T01:39:34;30.85;;;14.57;;
58091;SDS011;43896;48.178;11.578;2022-12-01T01:42:04;32.10;;;15.52;;
58091;SDS011;43896;48.178;11.578;2022-12-01T01:44:54;31.45;;;14.80;;
58091;SDS011;43896;48.178;11.578;2022-12-01T01:47:36;33.30;;;14.68;;
58091;SDS011;43896;48.178;11.578;2022-12-01T01:50:16;32.58;;;15.10;;
58091;SDS011;43896;48.178;11.578;2022-12-01T01:55:39;33.08;;;14.68;;
58091;SDS011;43896;48.178;11.578;2022-12-01T01:58:09;32.17;;;14.90;;
58091;SDS011;43896;48.178;11.578;2022-12-01T02:00:40;32.30;;;15.23;;
58091;SDS011;43896;48.178;11.578;2022-12-01T02:03:12;35.22;;;15.55;;
58091;SDS011;43896;48.178;11.578;2022-12-01T02:05:42;32.42;;;14.40;;
58091;SDS011;43896;48.178;11.578;2022-12-01T02:08:14;33.30;;;14.25;;
58091;SDS011;43896;48.178;11.578;2022-12-01T02:10:49;34.50;;;14.98;;
58091;SDS011;43896;48.178;11.578;2022-12-01T02:13:39;35.50;;;15.10;;
58091;SDS011;43896;48.178;11.578;2022-12-01T02:25:20;36.80;;;16.58;;
58091;SDS011;43896;48.178;11.578;2022-12-01T02:31:03;35.85;;;16.17;;
58091;SDS011;43896;48.178;11.578;2022-12-01T02:33:55;37.47;;;16.55;;
58091;SDS011;43896;48.178;11.578;2022-12-01T02:36:43;38.67;;;16.20;;
58091;SDS011;43896;48.178;11.578;2022-12-01T02:42:40;39.20;;;16.58;;
58091;SDS011;43896;48.178;11.578;2022-12-01T02:45:38;37.65;;;15.65;;
58091;SDS011;43896;48.178;11.578;2022-12-01T02:48:11;40.38;;;16.45;;
58091;SDS011;43896;48.178;11.578;2022-12-01T02:50:49;39.92;;;16.73;;
58091;SDS011;43896;48.178;11.578;2022-12-01T02:53:23;36.40;;;16.35;;
58091;SDS011;43896;48.178;11.578;2022-12-01T02:55:54;36.60;;;16.48;;
58091;SDS011;43896;48.178;11.578;2022-12-01T02:58:37;38.45;;;16.42;;
58091;SDS011;43896;48.178;11.578;2022-12-01T03:01:35;37.70;;;15.50;;
58091;SDS011;43896;48.178;11.578;2022-12-01T03:09:28;45.20;;;18.45;;
58091;SDS011;43896;48.178;11.578;2022-12-01T03:15:19;37.50;;;15.52;;
58091;SDS011;43896;48.178;11.578;2022-12-01T03:18:15;38.38;;;17.10;;
58091;SDS011;43896;48.178;11.578;2022-12-01T03:21:18;36.13;;;16.63;;
58091;SDS011;43896;48.178;11.578;2022-12-01T03:23:45;37.78;;;16.73;;
58091;SDS011;43896;48.178;11.578;2022-12-01T03:26:30;39.70;;;17.17;;
58091;SDS011;43896;48.178;11.578;2022-12-01T03:29:09;39.28;;;16.63;;
58091;SDS011;43896;48.178;11.578;2022-12-01T03:31:44;41.20;;;16.92;;
58091;SDS011;43896;48.178;11.578;2022-12-01T03:34:40;42.47;;;17.38;;
58091;SDS011;43896;48.178;11.578;2022-12-01T03:37:13;37.58;;;15.90;;
58091;SDS011;43896;48.178;11.578;2022-12-01T03:39:46;39.28;;;16.55;;
58091;SDS011;43896;48.178;11.578;2022-12-01T03:42:27;38.13;;;16.35;;
58091;SDS011;43896;48.178;11.578;2022-12-01T03:45:06;38.00;;;16.73;;
58091;SDS011;43896;48.178;11.578;2022-12-01T03:47:38;38.30;;;17.70;;
58091;SDS011;43896;48.178;11.578;2022-12-01T03:50:09;36.05;;;15.75;;
58091;SDS011;43896;48.178;11.578;2022-12-01T03:52:57;36.78;;;15.80;;
58091;SDS011;43896;48.178;11.578;2022-12-01T03:55:29;34.90;;;15.82;;
58091;SDS011;43896;48.178;11.578;2022-12-01T04:01:07;36.40;;;16.52;;
58091;SDS011;43896;48.178;11.578;2022-12-01T04:03:38;33.50;;;15.90;;
58091;SDS011;43896;48.178;11.578;2022-12-01T04:06:09;34.45;;;15.73;;
58091;SDS011;43896;48.178;11.578;2022-12-01T04:11:07;35.08;;;16.25;;
58091;SDS011;43896;48.178;11.578;2022-12-01T04:13:51;35.90;;;15.80;;
58091;SDS011;43896;48.178;11.578;2022-12-01T04:16:19;33.70;;;16.23;;
58091;SDS011;43896;48.178;11.578;2022-12-01T04:18:46;36.78;;;16.80;;
58091;SDS011;43896;48.178;11.578;2022-12-01T04:21:17;35.75;;;16.00;;
58091;SDS011;43896;48.178;11.578;2022-12-01T04:23:43;34.20;;;15.60;;
58091;SDS011;43896;48.178;11.578;2022-12-01T04:26:46;34.17;;;16.02;;
58091;SDS011;43896;48.178;11.578;2022-12-01T04:29:16;34.38;;;16.45;;
58091;SDS011;43896;48.178;11.578;2022-12-01T04:34:22;35.30;;;16.10;;
58091;SDS011;43896;48.178;11.578;2022-12-01T04:36:55;34.55;;;15.55;;
58091;SDS011;43896;48.178;11.578;2022-12-01T04:39:31;35.58;;;16.55;;
58091;SDS011;43896;48.178;11.578;2022-12-01T04:41:57;33.30;;;15.18;;
58091;SDS011;43896;48.178;11.578;2022-12-01T04:44:32;32.33;;;15.48;;
58091;SDS011;43896;48.178;11.578;2022-12-01T04:47:15;31.13;;;14.73;;
58091;SDS011;43896;48.178;11.578;2022-12-01T04:49:43;33.17;;;14.90;;
58091;SDS011;43896;48.178;11.578;2022-12-01T04:52:11;30.52;;;15.00;;
58091;SDS011;43896;48.178;11.578;2022-12-01T04:54:44;31.35;;;14.65;;
58091;SDS011;43896;48.178;11.578;2022-12-01T04:57:09;33.08;;;15.15;;
58091;SDS011;43896;48.178;11.578;2022-12-01T04:59:35;30.27;;;14.35;;
58091;SDS011;43896;48.178;11.578;2022-12-01T05:02:05;35.50;;;14.80;;
58091;SDS011;43896;48.178;11.578;2022-12-01T05:04:40;31.35;;;14.48;;
58091;SDS011;43896;48.178;11.578;2022-12-01T05:07:33;31.05;;;14.93;;
58091;SDS011;43896;48.178;11.578;2022-12-01T05:10:10;31.77;;;14.82;;
58091;SDS011;43896;48.178;11.578;2022-12-01T05:12:38;32.25;;;15.23;;
58091;SDS011;43896;48.178;11.578;2022-12-01T05:15:05;32.05;;;15.10;;
58091;SDS011;43896;48.178;11.578;2022-12-01T05:17:44;32.80;;;15.23;;
58091;SDS011;43896;48.178;11.578;2022-12-01T05:20:19;32.17;;;15.07;;
58091;SDS011;43896;48.178;11.578;2022-12-01T05:23:06;30.13;;;14.10;;
58091;SDS011;43896;48.178;11.578;2022-12-01T05:25:38;32.00;;;14.63;;
58091;SDS011;43896;48.178;11.578;2022-12-01T05:28:14;30.00;;;14.20;;
58091;SDS011;43896;48.178;11.578;2022-12-01T05:30:50;33.10;;;15.60;;
58091;SDS011;43896;48.178;11.578;2022-12-01T05:33:18;32.70;;;15.65;;
58091;SDS011;43896;48.178;11.578;2022-12-01T05:35:56;28.25;;;12.85;;
58091;SDS011;43896;48.178;11.578;2022-12-01T05:41:13;33.25;;;13.60;;
58091;SDS011;43896;48.178;11.578;2022-12-01T05:43:46;29.67;;;13.30;;
58091;SDS011;43896;48.178;11.578;2022-12-01T05:46:15;30.98;;;13.75;;
58091;SDS011;43896;48.178;11.578;2022-12-01T05:48:40;30.25;;;13.95;;
58091;SDS011;43896;48.178;11.578;2022-12-01T05:51:14;29.85;;;13.32;;
58091;SDS011;43896;48.178;11.578;2022-12-01T05:53:40;32.38;;;13.93;;
58091;SDS011;43896;48.178;11.578;2022-12-01T05:56:09;30.98;;;13.27;;
58091;SDS011;43896;48.178;11.578;2022-12-01T05:58:39;31.60;;;14.10;;
58091;SDS011;43896;48.178;11.578;2022-12-01T06:01:07;29.92;;;13.43;;
58091;SDS011;43896;48.178;11.578;2022-12-01T06:04:00;29.42;;;13.18;;
58091;SDS011;43896;48.178;11.578;2022-12-01T06:06:30;30.63;;;14.02;;
58091;SDS011;43896;48.178;11.578;2022-12-01T06:08:55;30.02;;;14.00;;
58091;SDS011;43896;48.178;11.578;2022-12-01T06:11:21;30.27;;;13.95;;
58091;SDS011;43896;48.178;11.578;2022-12-01T06:13:46;31.15;;;13.98;;
58091;SDS011;43896;48.178;11.578;2022-12-01T06:16:11;28.40;;;13.10;;
58091;SDS011;43896;48.178;11.578;2022-12-01T06:18:37;28.65;;;13.32;;
58091;SDS011;43896;48.178;11.578;2022-12-01T06:21:06;29.13;;;14.07;;
58091;SDS011;43896;48.178;11.578;2022-12-01T06:23:31;28.92;;;13.45;;
58091;SDS011;43896;48.178;11.578;2022-12-01T06:25:57;32.92;;;15.25;;
58091;SDS011;43896;48.178;11.578;2022-12-01T06:28:23;29.70;;;14.02;;
58091;SDS011;43896;48.178;11.578;2022-12-01T06:30:48;28.92;;;13.50;;
58091;SDS011;43896;48.178;11.578;2022-12-01T06:33:13;31.20;;;14.02;;
58091;SDS011;43896;48.178;11.578;2022-12-01T06:35:39;31.48;;;14.55;;
58091;SDS011;43896;48.178;11.578;2022-12-01T06:38:22;31.73;;;13.95;;
58091;SDS011;43896;48.178;11.578;2022-12-01T06:40:47;29.13;;;13.57;;
58091;SDS011;43896;48.178;11.578;2022-12-01T06:43:13;29.58;;;12.88;;
58091;SDS011;43896;48.178;11.578;2022-12-01T06:45:41;28.40;;;13.55;;
58091;SDS011;43896;48.178;11.578;2022-12-01T06:48:06;29.90;;;14.20;;
58091;SDS011;43896;48.178;11.578;2022-12-01T06:50:32;29.58;;;13.52;;
58091;SDS011;43896;48.178;11.578;2022-12-01T06:52:58;30.52;;;13.60;;
58091;SDS011;43896;48.178;11.578;2022-12-01T06:55:23;32.60;;;14.48;;
58091;SDS011;43896;48.178;11.578;2022-12-01T06:57:51;33.05;;;13.98;;
58091;SDS011;43896;48.178;11.578;2022-12-01T07:00:16;33.50;;;15.13;;
58091;SDS011;43896;48.178;11.578;2022-12-01T07:02:42;34.67;;;14.85;;
58091;SDS011;43896;48.178;11.578;2022-12-01T07:05:08;31.60;;;14.93;;
58091;SDS011;43896;48.178;11.578;2022-12-01T07:07:37;34.90;;;16.38;;
58091;SDS011;43896;48.178;11.578;2022-12-01T07:10:03;33.40;;;15.77;;
58091;SDS011;43896;48.178;11.578;2022-12-01T07:12:29;35.72;;;15.95;;
58091;SDS011;43896;48.178;11.578;2022-12-01T07:14:55;33.17;;;14.63;;
58091;SDS011;43896;48.178;11.578;2022-12-01T07:17:22;33.25;;;15.05;;
58091;SDS011;43896;48.178;11.578;2022-12-01T07:19:50;35.28;;;15.13;;
58091;SDS011;43896;48.178;11.578;2022-12-01T07:22:15;38.97;;;16.00;;
58091;SDS011;43896;48.178;11.578;2022-12-01T07:24:41;33.67;;;15.57;;
58091;SDS011;43896;48.178;11.578;2022-12-01T07:27:06;32.97;;;15.15;;
58091;SDS011;43896;48.178;11.578;2022-12-01T07:29:32;31.67;;;14.32;;
58091;SDS011;43896;48.178;11.578;2022-12-01T07:31:57;33.47;;;16.27;;
58091;SDS011;43896;48.178;11.578;2022-12-01T07:34:22;33.78;;;14.60;;
58091;SDS011;43896;48.178;11.578;2022-12-01T07:36:48;30.38;;;14.82;;
58091;SDS011;43896;48.178;11.578;2022-12-01T07:39:13;32.50;;;14.15;;
58091;SDS011;43896;48.178;11.578;2022-12-01T07:41:39;29.63;;;12.98;;
58091;SDS011;43896;48.178;11.578;2022-12-01T07:44:04;30.00;;;13.88;;
58091;SDS011;43896;48.178;11.578;2022-12-01T07:46:30;29.48;;;14.38;;
58091;SDS011;43896;48.178;11.578;2022-12-01T07:48:55;30.70;;;14.05;;
58091;SDS011;43896;48.178;11.578;2022-12-01T07:51:22;30.40;;;14.45;;
58091;SDS011;43896;48.178;11.578;2022-12-01T07:53:48;27.65;;;13.77;;
58091;SDS011;43896;48.178;11.578;2022-12-01T07:56:16;31.45;;;14.93;;
58091;SDS011;43896;48.178;11.578;2022-12-01T07:58:42;27.77;;;13.65;;
58091;SDS011;43896;48.178;11.578;2022-12-01T08:01:16;29.27;;;13.93;;
58091;SDS011;43896;48.178;11.578;2022-12-01T08:03:43;26.85;;;13.43;;
58091;SDS011;43896;48.178;11.578;2022-12-01T08:06:09;25.70;;;12.95;;
58091;SDS011;43896;48.178;11.578;2022-12-01T08:08:36;27.00;;;13.63;;
58091;SDS011;43896;48.178;11.578;2022-12-01T08:11:08;26.17;;;13.75;;
58091;SDS011;43896;48.178;11.578;2022-12-01T08:13:38;27.73;;;14.30;;
58091;SDS011;43896;48.178;11.578;2022-12-01T08:16:04;29.67;;;14.82;;
58091;SDS011;43896;48.178;11.578;2022-12-01T08:18:32;26.40;;;13.25;;
58091;SDS011;43896;48.178;11.578;2022-12-01T08:21:02;27.77;;;13.25;;
58091;SDS011;43896;48.178;11.578;2022-12-01T08:23:28;27.67;;;14.07;;
58091;SDS011;43896;48.178;11.578;2022-12-01T08:25:54;27.92;;;13.10;;
58091;SDS011;43896;48.178;11.578;2022-12-01T08:28:19;26.85;;;12.45;;
58091;SDS011;43896;48.178;11.578;2022-12-01T08:30:45;27.35;;;13.43;;
58091;SDS011;43896;48.178;11.578;2022-12-01T08:33:11;30.10;;;14.05;;
58091;SDS011;43896;48.178;11.578;2022-12-01T08:35:36;28.65;;;13.25;;
58091;SDS011;43896;48.178;11.578;2022-12-01T08:38:02;28.23;;;13.73;;
58091;SDS011;43896;48.178;11.578;2022-12-01T08:40:27;28.17;;;13.10;;
58091;SDS011;43896;48.178;11.578;2022-12-01T08:42:53;26.67;;;14.13;;
58091;SDS011;43896;48.178;11.578;2022-12-01T08:45:19;28.75;;;13.75;;
58091;SDS011;43896;48.178;11.578;2022-12-01T08:47:44;29.67;;;14.20;;
58091;SDS011;43896;48.178;11.578;2022-12-01T08:50:10;27.23;;;13.75;;
58091;SDS011;43896;48.178;11.578;2022-12-01T08:52:36;27.10;;;13.32;;
58091;SDS011;43896;48.178;11.578;2022-12-01T08:55:02;28.42;;;13.50;;
58091;SDS011;43896;48.178;11.578;2022-12-01T08:57:28;26.58;;;13.23;;
58091;SDS011;43896;48.178;11.578;2022-12-01T08:59:54;23.83;;;12.35;;
58091;SDS011;43896;48.178;11.578;2022-12-01T09:02:20;29.23;;;13.77;;
58091;SDS011;43896;48.178;11.578;2022-12-01T09:04:49;24.08;;;11.73;;
58091;SDS011;43896;48.178;11.578;2022-12-01T09:07:15;26.42;;;11.95;;
58091;SDS011;43896;48.178;11.578;2022-12-01T09:09:42;23.88;;;11.50;;
58091;SDS011;43896;48.178;11.578;2022-12-01T09:12:08;24.73;;;12.27;;
58091;SDS011;43896;48.178;11.578;2022-12-01T09:14:37;25.25;;;11.80;;
58091;SDS011;43896;48.178;11.578;2022-12-01T09:17:11;23.70;;;11.40;;
58091;SDS011;43896;48.178;11.578;2022-12-01T09:19:36;24.45;;;11.77;;
58091;SDS011;43896;48.178;11.578;2022-12-01T09:22:04;24.05;;;11.75;;
58091;SDS011;43896;48.178;11.578;2022-12-01T09:24:30;25.92;;;12.05;;
58091;SDS011;43896;48.178;11.578;2022-12-01T09:26:56;24.92;;;12.00;;
58091;SDS011;43896;48.178;11.578;2022-12-01T09:29:22;25.35;;;12.05;;
58091;SDS011;43896;48.178;11.578;2022-12-01T09:31:48;23.75;;;12.00;;
58091;SDS011;43896;48.178;11.578;2022-12-01T09:34:15;24.48;;;11.70;;
58091;SDS011;43896;48.178;11.578;2022-12-01T09:36:42;24.77;;;11.48;;
58091;SDS011;43896;48.178;11.578;2022-12-01T09:39:10;24.98;;;12.00;;
58091;SDS011;43896;48.178;11.578;2022-12-01T09:44:40;23.33;;;11.60;;
58091;SDS011;43896;48.178;11.578;2022-12-01T09:50:00;20.77;;;10.20;;
58091;SDS011;43896;48.178;11.578;2022-12-01T09:52:28;22.95;;;10.70;;
58091;SDS011;43896;48.178;11.578;2022-12-01T09:54:58;21.13;;;10.75;;
58091;SDS011;43896;48.178;11.578;2022-12-01T09:57:34;21.00;;;10.35;;
58091;SDS011;43896;48.178;11.578;2022-12-01T10:00:09;23.77;;;11.52;;
58091;SDS011;43896;48.178;11.578;2022-12-01T10:02:41;23.33;;;10.98;;
58091;SDS011;43896;48.178;11.578;2022-12-01T10:05:14;23.65;;;10.75;;
58091;SDS011;43896;48.178;11.578;2022-12-01T10:07:44;23.38;;;11.18;;
58091;SDS011;43896;48.178;11.578;2022-12-01T10:12:42;23.00;;;11.48;;
58091;SDS011;43896;48.178;11.578;2022-12-01T10:15:31;21.10;;;9.52;;
58091;SDS011;43896;48.178;11.578;2022-12-01T10:24:00;23.20;;;10.60;;
58091;SDS011;43896;48.178;11.578;2022-12-01T10:32:26;23.45;;;11.55;;
58091;SDS011;43896;48.178;11.578;2022-12-01T10:34:57;24.95;;;11.50;;
58091;SDS011;43896;48.178;11.578;2022-12-01T10:37:23;24.55;;;11.55;;
58091;SDS011;43896;48.178;11.578;2022-12-01T10:39:52;24.73;;;11.00;;
58091;SDS011;43896;48.178;11.578;2022-12-01T10:45:15;24.20;;;11.43;;
58091;SDS011;43896;48.178;11.578;2022-12-01T10:50:34;25.27;;;12.20;;
58091;SDS011;43896;48.178;11.578;2022-12-01T10:53:01;24.13;;;12.02;;
58091;SDS011;43896;48.178;11.578;2022-12-01T10:55:28;27.00;;;11.85;;
58091;SDS011;43896;48.178;11.578;2022-12-01T10:57:57;23.30;;;11.13;;
58091;SDS011;43896;48.178;11.578;2022-12-01T11:00:31;25.85;;;11.73;;
58091;SDS011;43896;48.178;11.578;2022-12-01T11:03:03;23.80;;;10.93;;
58091;SDS011;43896;48.178;11.578;2022-12-01T11:05:29;26.95;;;11.70;;
58091;SDS011;43896;48.178;11.578;2022-12-01T11:08:04;24.67;;;11.25;;
58091;SDS011;43896;48.178;11.578;2022-12-01T11:10:31;21.25;;;10.82;;
58091;SDS011;43896;48.178;11.578;2022-12-01T11:13:05;22.75;;;11.05;;
58091;SDS011;43896;48.178;11.578;2022-12-01T11:15:39;23.85;;;11.40;;
58091;SDS011;43896;48.178;11.578;2022-12-01T11:18:20;23.50;;;11.35;;
58091;SDS011;43896;48.178;11.578;2022-12-01T11:20:46;23.98;;;11.43;;
58091;SDS011;43896;48.178;11.578;2022-12-01T11:26:09;24.95;;;12.35;;
58091;SDS011;43896;48.178;11.578;2022-12-01T11:28:39;24.77;;;12.40;;
58091;SDS011;43896;48.178;11.578;2022-12-01T11:31:14;25.33;;;12.18;;
58091;SDS011;43896;48.178;11.578;2022-12-01T11:33:49;26.38;;;11.93;;
58091;SDS011;43896;48.178;11.578;2022-12-01T11:36:21;26.83;;;12.15;;
58091;SDS011;43896;48.178;11.578;2022-12-01T11:38:58;23.90;;;11.75;;
58091;SDS011;43896;48.178;11.578;2022-12-01T11:41:35;23.77;;;11.55;;
58091;SDS011;43896;48.178;11.578;2022-12-01T11:44:03;23.30;;;11.38;;
58091;SDS011;43896;48.178;11.578;2022-12-01T11:46:34;25.90;;;12.00;;
58091;SDS011;43896;48.178;11.578;2022-12-01T11:49:02;24.98;;;12.45;;
58091;SDS011;43896;48.178;11.578;2022-12-01T11:51:29;26.30;;;12.35;;
58091;SDS011;43896;48.178;11.578;2022-12-01T11:56:43;24.45;;;11.90;;
58091;SDS011;43896;48.178;11.578;2022-12-01T11:59:11;25.63;;;11.90;;
58091;SDS011;43896;48.178;11.578;2022-12-01T12:04:48;24.92;;;11.75;;
58091;SDS011;43896;48.178;11.578;2022-12-01T12:12:44;24.75;;;11.60;;
58091;SDS011;43896;48.178;11.578;2022-12-01T12:26:11;24.15;;;10.90;;
58091;SDS011;43896;48.178;11.578;2022-12-01T12:37:20;23.17;;;11.98;;
58091;SDS011;43896;48.178;11.578;2022-12-01T12:42:53;22.92;;;10.68;;
58091;SDS011;43896;48.178;11.578;2022-12-01T12:45:48;23.40;;;11.35;;
58091;SDS011;43896;48.178;11.578;2022-12-01T12:48:43;24.23;;;11.63;;
58091;SDS011;43896;48.178;11.578;2022-12-01T12:51:17;22.08;;;11.20;;
58091;SDS011;43896;48.178;11.578;2022-12-01T12:53:56;25.13;;;11.93;;
58091;SDS011;43896;48.178;11.578;2022-12-01T12:56:29;25.55;;;11.35;;
58091;SDS011;43896;48.178;11.578;2022-12-01T12:59:42;30.30;;;11.63;;
58091;SDS011;43896;48.178;11.578;2022-12-01T13:01:58;23.48;;;10.98;;
58091;SDS011;43896;48.178;11.578;2022-12-01T13:04:39;24.35;;;11.68;;
58091;SDS011;43896;48.178;11.578;2022-12-01T13:09:48;24.30;;;11.43;;
58091;SDS011;43896;48.178;11.578;2022-12-01T13:12:29;24.48;;;11.18;;
58091;SDS011;43896;48.178;11.578;2022-12-01T13:15:15;22.77;;;11.60;;
58091;SDS011;43896;48.178;11.578;2022-12-01T13:17:47;26.33;;;11.10;;
58091;SDS011;43896;48.178;11.578;2022-12-01T13:20:15;25.35;;;11.15;;
58091;SDS011;43896;48.178;11.578;2022-12-01T13:22:43;26.77;;;11.68;;
58091;SDS011;43896;48.178;11.578;2022-12-01T13:25:14;25.20;;;11.73;;
58091;SDS011;43896;48.178;11.578;2022-12-01T13:27:43;25.55;;;11.23;;
58091;SDS011;43896;48.178;11.578;2022-12-01T13:30:15;25.90;;;11.25;;
58091;SDS011;43896;48.178;11.578;2022-12-01T13:32:46;26.98;;;12.35;;
58091;SDS011;43896;48.178;11.578;2022-12-01T13:35:26;25.38;;;11.35;;
58091;SDS011;43896;48.178;11.578;2022-12-01T13:37:56;22.65;;;10.57;;
58091;SDS011;43896;48.178;11.578;2022-12-01T13:40:43;22.13;;;10.65;;
58091;SDS011;43896;48.178;11.578;2022-12-01T13:43:19;21.73;;;10.00;;
58091;SDS011;43896;48.178;11.578;2022-12-01T13:45:47;20.83;;;10.23;;
58091;SDS011;43896;48.178;11.578;2022-12-01T13:48:49;24.25;;;11.63;;
58091;SDS011;43896;48.178;11.578;2022-12-01T13:51:15;21.60;;;10.57;;
58091;SDS011;43896;48.178;11.578;2022-12-01T13:56:43;21.85;;;10.70;;
58091;SDS011;43896;48.178;11.578;2022-12-01T14:02:11;22.65;;;10.60;;
58091;SDS011;43896;48.178;11.578;2022-12-01T14:04:41;22.05;;;10.43;;
58091;SDS011;43896;48.178;11.578;2022-12-01T14:10:15;23.95;;;10.27;;
58091;SDS011;43896;48.178;11.578;2022-12-01T14:12:44;21.45;;;10.20;;
58091;SDS011;43896;48.178;11.578;2022-12-01T14:15:23;23.00;;;10.90;;
58091;SDS011;43896;48.178;11.578;2022-12-01T14:18:03;20.77;;;10.30;;
58091;SDS011;43896;48.178;11.578;2022-12-01T14:20:31;22.27;;;11.23;;
58091;SDS011;43896;48.178;11.578;2022-12-01T14:25:35;21.27;;;10.45;;
58091;SDS011;43896;48.178;11.578;2022-12-01T14:28:02;22.77;;;10.27;;
58091;SDS011;43896;48.178;11.578;2022-12-01T14:36:29;22.20;;;10.48;;
58091;SDS011;43896;48.178;11.578;2022-12-01T14:39:05;23.38;;;11.50;;
58091;SDS011;43896;48.178;11.578;2022-12-01T14:46:48;21.85;;;10.57;;
58091;SDS011;43896;48.178;11.578;2022-12-01T14:49:22;21.42;;;10.70;;
58091;SDS011;43896;48.178;11.578;2022-12-01T14:51:53;21.98;;;10.57;;
58091;SDS011;43896;48.178;11.578;2022-12-01T14:54:32;21.48;;;10.60;;
58091;SDS011;43896;48.178;11.578;2022-12-01T14:57:06;20.63;;;10.18;;
58091;SDS011;43896;48.178;11.578;2022-12-01T14:59:34;20.83;;;9.20;;
58091;SDS011;43896;48.178;11.578;2022-12-01T15:02:02;18.63;;;9.35;;
58091;SDS011;43896;48.178;11.578;2022-12-01T15:04:34;19.65;;;9.70;;
58091;SDS011;43896;48.178;11.578;2022-12-01T15:07:20;19.95;;;10.02;;
58091;SDS011;43896;48.178;11.578;2022-12-01T15:09:59;20.30;;;9.07;;
58091;SDS011;43896;48.178;11.578;2022-12-01T15:12:26;17.90;;;8.77;;
58091;SDS011;43896;48.178;11.578;2022-12-01T15:14:53;18.48;;;9.40;;
58091;SDS011;43896;48.178;11.578;2022-12-01T15:17:27;18.95;;;8.40;;
58091;SDS011;43896;48.178;11.578;2022-12-01T15:19:53;20.10;;;10.57;;
58091;SDS011;43896;48.178;11.578;2022-12-01T15:22:30;22.02;;;11.00;;
58091;SDS011;43896;48.178;11.578;2022-12-01T15:25:05;23.05;;;10.23;;
58091;SDS011;43896;48.178;11.578;2022-12-01T15:27:32;22.92;;;10.05;;
58091;SDS011;43896;48.178;11.578;2022-12-01T15:29:58;23.58;;;10.15;;
58091;SDS011;43896;48.178;11.578;2022-12-01T15:32:29;22.27;;;10.10;;
58091;SDS011;43896;48.178;11.578;2022-12-01T15:34:56;20.90;;;9.98;;
58091;SDS011;43896;48.178;11.578;2022-12-01T15:37:29;22.23;;;10.52;;
58091;SDS011;43896;48.178;11.578;2022-12-01T15:40:07;24.45;;;10.77;;
58091;SDS011;43896;48.178;11.578;2022-12-01T15:42:39;22.02;;;10.45;;
58091;SDS011;43896;48.178;11.578;2022-12-01T15:45:17;20.17;;;9.77;;
58091;SDS011;43896;48.178;11.578;2022-12-01T15:47:45;19.80;;;9.68;;
58091;SDS011;43896;48.178;11.578;2022-12-01T15:52:58;20.13;;;10.30;;
58091;SDS011;43896;48.178;11.578;2022-12-01T15:55:27;20.00;;;9.82;;
58091;SDS011;43896;48.178;11.578;2022-12-01T15:57:58;22.95;;;10.80;;
58091;SDS011;43896;48.178;11.578;2022-12-01T16:00:24;21.25;;;10.20;;
58091;SDS011;43896;48.178;11.578;2022-12-01T16:02:54;23.27;;;10.48;;
58091;SDS011;43896;48.178;11.578;2022-12-01T16:05:29;22.90;;;11.07;;
58091;SDS011;43896;48.178;11.578;2022-12-01T16:08:20;20.58;;;10.35;;
58091;SDS011;43896;48.178;11.578;2022-12-01T16:13:43;21.48;;;10.25;;
58091;SDS011;43896;48.178;11.578;2022-12-01T16:21:26;20.25;;;10.38;;
58091;SDS011;43896;48.178;11.578;2022-12-01T16:23:58;21.98;;;10.88;;
58091;SDS011;43896;48.178;11.578;2022-12-01T16:26:25;19.98;;;10.27;;
58091;SDS011;43896;48.178;11.578;2022-12-01T16:28:50;20.60;;;10.60;;
58091;SDS011;43896;48.178;11.578;2022-12-01T16:31:17;23.33;;;10.85;;
58091;SDS011;43896;48.178;11.578;2022-12-01T16:33:46;19.58;;;10.52;;
58091;SDS011;43896;48.178;11.578;2022-12-01T16:36:11;22.17;;;10.68;;
58091;SDS011;43896;48.178;11.578;2022-12-01T16:38:38;19.13;;;9.68;;
58091;SDS011;43896;48.178;11.578;2022-12-01T16:41:15;20.30;;;9.88;;
58091;SDS011;43896;48.178;11.578;2022-12-01T16:43:42;21.88;;;10.23;;
58091;SDS011;43896;48.178;11.578;2022-12-01T16:46:08;20.05;;;10.07;;
58091;SDS011;43896;48.178;11.578;2022-12-01T16:48:35;21.65;;;10.90;;
58091;SDS011;43896;48.178;11.578;2022-12-01T16:51:02;20.60;;;10.27;;
58091;SDS011;43896;48.178;11.578;2022-12-01T16:53:30;21.13;;;10.38;;